sensor_id;sensor_type;location;lat;lon;timestamp;pressure;altitude;pressure_sealevel;temperature;humidity
55664;BME280;41540;57.880;12.164;2022-11-20T00:08:50;100511.44;;;-1.71;100.00
55664;BME280;41540;57.880;12.164;2022-11-20T00:18:51;100481.13;;;-1.94;100.00
55664;BME280;41540;57.880;12.164;2022-11-20T00:28:54;100443.81;;;-2.34;100.00
55664;BME280;41540;57.880;12.164;2022-11-20T00:38:56;100496.47;;;-2.18;100.00
55664;BME280;41540;57.880;12.164;2022-11-20T00:48:57;100397.72;;;-2.90;100.00
55664;BME280;41540;57.880;12.164;2022-11-20T00:58:59;100441.97;;;-2.73;100.00
55664;BME280;41540;57.880;12.164;2022-11-20T01:09:03;100483.50;;;-2.60;100.00
55664;BME280;41540;57.880;12.164;2022-11-20T01:19:06;100520.63;;;-2.48;100.00
55664;BME280;41540;57.880;12.164;2022-11-20T01:29:29;100463.94;;;-2.86;100.00
55664;BME280;41540;57.880;12.164;2022-11-20T01:39:29;100392.69;;;-3.14;100.00
55664;BME280;41540;57.880;12.164;2022-11-20T01:49:37;100311.22;;;-3.69;100.00
55664;BME280;41540;57.880;12.164;2022-11-20T01:59:44;100313.13;;;-3.41;100.00
55664;BME280;41540;57.880;12.164;2022-11-20T02:09:47;100432.41;;;-2.52;100.00
55664;BME280;41540;57.880;12.164;2022-11-20T02:19:48;100487.69;;;-2.10;100.00
55664;BME280;41540;57.880;12.164;2022-11-20T02:29:58;100494.91;;;-1.91;100.00
55664;BME280;41540;57.880;12.164;2022-11-20T02:40:00;100402.72;;;-2.28;100.00
55664;BME280;41540;57.880;12.164;2022-11-20T02:50:01;100403.72;;;-2.26;100.00
55664;BME280;41540;57.880;12.164;2022-11-20T03:00:02;100390.22;;;-2.25;100.00
55664;BME280;41540;57.880;12.164;2022-11-20T03:10:04;100360.41;;;-2.55;100.00
55664;BME280;41540;57.880;12.164;2022-11-20T03:20:05;100454.09;;;-2.19;100.00
55664;BME280;41540;57.880;12.164;2022-11-20T03:30:06;100389.59;;;-2.73;100.00
55664;BME280;41540;57.880;12.164;2022-11-20T03:40:07;100421.81;;;-2.72;100.00
55664;BME280;41540;57.880;12.164;2022-11-20T03:50:10;100356.13;;;-3.18;100.00
55664;BME280;41540;57.880;12.164;2022-11-20T04:00:13;100458.47;;;-2.55;100.00
55664;BME280;41540;57.880;12.164;2022-11-20T04:10:13;100333.81;;;-3.35;100.00
55664;BME280;41540;57.880;12.164;2022-11-20T04:20:14;100417.94;;;-3.04;100.00
55664;BME280;41540;57.880;12.164;2022-11-20T04:30:16;100363.69;;;-3.43;100.00
55664;BME280;41540;57.880;12.164;2022-11-20T04:40:16;100321.00;;;-3.62;100.00
55664;BME280;41540;57.880;12.164;2022-11-20T04:50:16;100375.69;;;-3.28;100.00
55664;BME280;41540;57.880;12.164;2022-11-20T05:00:17;100400.72;;;-2.96;100.00
55664;BME280;41540;57.880;12.164;2022-11-20T05:10:17;100390.91;;;-3.03;100.00
55664;BME280;41540;57.880;12.164;2022-11-20T05:20:18;100374.69;;;-2.94;100.00
55664;BME280;41540;57.880;12.164;2022-11-20T05:30:18;100292.00;;;-3.17;100.00
55664;BME280;41540;57.880;12.164;2022-11-20T05:40:19;100363.81;;;-2.54;100.00
55664;BME280;41540;57.880;12.164;2022-11-20T05:50:19;100223.88;;;-3.12;100.00
55664;BME280;41540;57.880;12.164;2022-11-20T06:00:19;100318.56;;;-2.35;100.00
55664;BME280;41540;57.880;12.164;2022-11-20T06:10:20;100253.06;;;-2.53;100.00
55664;BME280;41540;57.880;12.164;2022-11-20T06:20:21;100268.13;;;-2.30;100.00
55664;BME280;41540;57.880;12.164;2022-11-20T06:30:21;100244.59;;;-2.27;100.00
55664;BME280;41540;57.880;12.164;2022-11-20T06:40:22;100318.59;;;-1.68;100.00
55664;BME280;41540;57.880;12.164;2022-11-20T06:50:22;100159.91;;;-2.43;100.00
55664;BME280;41540;57.880;12.164;2022-11-20T07:00:22;100153.09;;;-2.44;100.00
55664;BME280;41540;57.880;12.164;2022-11-20T07:10:23;100300.88;;;-1.53;100.00
55664;BME280;41540;57.880;12.164;2022-11-20T07:20:24;100161.84;;;-2.39;100.00
55664;BME280;41540;57.880;12.164;2022-11-20T07:30:24;100224.38;;;-1.99;100.00
55664;BME280;41540;57.880;12.164;2022-11-20T07:40:25;100189.06;;;-2.23;100.00
55664;BME280;41540;57.880;12.164;2022-11-20T07:50:25;100177.44;;;-2.19;100.00
55664;BME280;41540;57.880;12.164;2022-11-20T08:00:26;100169.91;;;-2.18;100.00
55664;BME280;41540;57.880;12.164;2022-11-20T08:10:26;100220.84;;;-1.60;100.00
55664;BME280;41540;57.880;12.164;2022-11-20T08:20:27;100100.50;;;-2.18;100.00
55664;BME280;41540;57.880;12.164;2022-11-20T08:30:28;100208.66;;;-1.37;100.00
55664;BME280;41540;57.880;12.164;2022-11-20T08:40:29;100130.06;;;-1.77;100.00
55664;BME280;41540;57.880;12.164;2022-11-20T08:50:29;99949.72;;;-2.78;100.00
55664;BME280;41540;57.880;12.164;2022-11-20T09:00:33;100218.88;;;-1.07;100.00
55664;BME280;41540;57.880;12.164;2022-11-20T09:10:33;100193.78;;;-1.16;100.00
55664;BME280;41540;57.880;12.164;2022-11-20T09:20:34;100139.84;;;-1.40;100.00
55664;BME280;41540;57.880;12.164;2022-11-20T09:30:35;100217.66;;;-0.69;100.00
55664;BME280;41540;57.880;12.164;2022-11-20T09:40:39;100206.16;;;-0.63;100.00
55664;BME280;41540;57.880;12.164;2022-11-20T10:01:18;100160.03;;;-0.69;100.00
55664;BME280;41540;57.880;12.164;2022-11-20T10:22:32;100056.03;;;-0.79;100.00
55664;BME280;41540;57.880;12.164;2022-11-20T10:32:38;100069.63;;;-0.93;100.00
55664;BME280;41540;57.880;12.164;2022-11-20T10:42:43;99977.91;;;-1.28;100.00
55664;BME280;41540;57.880;12.164;2022-11-20T11:02:52;99855.25;;;-1.86;100.00
55664;BME280;41540;57.880;12.164;2022-11-20T11:12:53;100045.81;;;-0.48;100.00
55664;BME280;41540;57.880;12.164;2022-11-20T11:22:55;100019.19;;;-0.22;100.00
55664;BME280;41540;57.880;12.164;2022-11-20T11:33:04;100027.22;;;-0.47;100.00
55664;BME280;41540;57.880;12.164;2022-11-20T11:43:31;99892.56;;;-1.39;100.00
55664;BME280;41540;57.880;12.164;2022-11-20T11:53:52;99939.75;;;-1.13;100.00
55664;BME280;41540;57.880;12.164;2022-11-20T12:04:02;99985.44;;;-0.67;100.00
55664;BME280;41540;57.880;12.164;2022-11-20T12:14:14;99883.50;;;-1.19;100.00
55664;BME280;41540;57.880;12.164;2022-11-20T12:45:10;99921.91;;;-0.65;100.00
55664;BME280;41540;57.880;12.164;2022-11-20T13:05:34;99964.38;;;-0.31;100.00
55664;BME280;41540;57.880;12.164;2022-11-20T13:15:54;99874.38;;;-0.83;100.00
55664;BME280;41540;57.880;12.164;2022-11-20T13:26:13;99885.66;;;-0.94;100.00
55664;BME280;41540;57.880;12.164;2022-11-20T13:36:25;99857.44;;;-1.15;100.00
55664;BME280;41540;57.880;12.164;2022-11-20T13:46:41;99852.09;;;-1.20;100.00
55664;BME280;41540;57.880;12.164;2022-11-20T13:57:03;99871.78;;;-1.32;100.00
55664;BME280;41540;57.880;12.164;2022-11-20T14:07:06;99722.22;;;-2.05;100.00
55664;BME280;41540;57.880;12.164;2022-11-20T14:17:09;99921.19;;;-0.95;100.00
55664;BME280;41540;57.880;12.164;2022-11-20T14:27:20;99854.13;;;-1.29;100.00
55664;BME280;41540;57.880;12.164;2022-11-20T14:37:23;99773.91;;;-1.57;100.00
55664;BME280;41540;57.880;12.164;2022-11-20T14:47:26;99861.47;;;-1.02;100.00
55664;BME280;41540;57.880;12.164;2022-11-20T14:57:32;99711.31;;;-1.87;100.00
55664;BME280;41540;57.880;12.164;2022-11-20T15:07:41;99822.31;;;-1.22;100.00
55664;BME280;41540;57.880;12.164;2022-11-20T15:17:45;99722.06;;;-1.77;100.00
55664;BME280;41540;57.880;12.164;2022-11-20T15:27:55;99750.41;;;-1.52;100.00
55664;BME280;41540;57.880;12.164;2022-11-20T15:37:56;99783.47;;;-1.36;100.00
55664;BME280;41540;57.880;12.164;2022-11-20T15:47:56;99779.56;;;-1.29;100.00
55664;BME280;41540;57.880;12.164;2022-11-20T15:57:57;99727.78;;;-1.64;100.00
55664;BME280;41540;57.880;12.164;2022-11-20T16:07:57;99670.13;;;-1.98;100.00
55664;BME280;41540;57.880;12.164;2022-11-20T16:17:57;99684.22;;;-1.72;100.00
55664;BME280;41540;57.880;12.164;2022-11-20T16:27:58;99710.63;;;-1.52;100.00
55664;BME280;41540;57.880;12.164;2022-11-20T16:37:58;99553.03;;;-2.37;100.00
55664;BME280;41540;57.880;12.164;2022-11-20T16:47:58;99650.22;;;-1.74;100.00
55664;BME280;41540;57.880;12.164;2022-11-20T16:57:59;99482.75;;;-2.71;100.00
55664;BME280;41540;57.880;12.164;2022-11-20T17:07:59;99659.28;;;-1.63;100.00
55664;BME280;41540;57.880;12.164;2022-11-20T17:18:00;99589.00;;;-1.97;100.00
55664;BME280;41540;57.880;12.164;2022-11-20T17:28:02;99572.38;;;-2.06;100.00
55664;BME280;41540;57.880;12.164;2022-11-20T17:38:03;99518.22;;;-2.40;100.00
55664;BME280;41540;57.880;12.164;2022-11-20T17:48:03;99582.16;;;-1.98;100.00
55664;BME280;41540;57.880;12.164;2022-11-20T17:58:04;99554.88;;;-2.18;100.00
55664;BME280;41540;57.880;12.164;2022-11-20T18:08:05;99509.44;;;-2.30;100.00
55664;BME280;41540;57.880;12.164;2022-11-20T18:18:05;99535.13;;;-2.07;100.00
55664;BME280;41540;57.880;12.164;2022-11-20T18:28:06;99530.59;;;-2.13;100.00
55664;BME280;41540;57.880;12.164;2022-11-20T18:38:06;99487.94;;;-2.37;100.00
55664;BME280;41540;57.880;12.164;2022-11-20T18:48:06;99451.16;;;-2.45;100.00
55664;BME280;41540;57.880;12.164;2022-11-20T18:58:07;99394.66;;;-2.75;100.00
55664;BME280;41540;57.880;12.164;2022-11-20T19:08:07;99436.03;;;-2.43;100.00
55664;BME280;41540;57.880;12.164;2022-11-20T19:18:08;99457.75;;;-2.32;100.00
55664;BME280;41540;57.880;12.164;2022-11-20T19:28:09;99523.56;;;-2.02;100.00
55664;BME280;41540;57.880;12.164;2022-11-20T19:38:09;99516.06;;;-1.99;100.00
55664;BME280;41540;57.880;12.164;2022-11-20T19:48:09;99477.94;;;-2.17;100.00
55664;BME280;41540;57.880;12.164;2022-11-20T19:58:09;99411.44;;;-2.44;100.00
55664;BME280;41540;57.880;12.164;2022-11-20T20:08:10;99452.78;;;-2.12;100.00
55664;BME280;41540;57.880;12.164;2022-11-20T20:18:10;99428.16;;;-2.31;100.00
55664;BME280;41540;57.880;12.164;2022-11-20T20:28:11;99409.22;;;-2.38;100.00
55664;BME280;41540;57.880;12.164;2022-11-20T20:38:11;99357.81;;;-2.68;100.00
55664;BME280;41540;57.880;12.164;2022-11-20T20:48:12;99327.06;;;-2.75;100.00
55664;BME280;41540;57.880;12.164;2022-11-20T20:58:12;99384.47;;;-2.42;100.00
55664;BME280;41540;57.880;12.164;2022-11-20T21:08:12;99383.31;;;-2.49;100.00
55664;BME280;41540;57.880;12.164;2022-11-20T21:18:24;99401.06;;;-2.32;100.00
55664;BME280;41540;57.880;12.164;2022-11-20T21:28:24;99280.38;;;-2.96;100.00
55664;BME280;41540;57.880;12.164;2022-11-20T21:38:24;99241.88;;;-3.05;100.00
55664;BME280;41540;57.880;12.164;2022-11-20T21:48:31;99371.47;;;-2.32;100.00
55664;BME280;41540;57.880;12.164;2022-11-20T21:58:33;99156.50;;;-3.41;100.00
55664;BME280;41540;57.880;12.164;2022-11-20T22:08:35;99252.59;;;-2.77;100.00
55664;BME280;41540;57.880;12.164;2022-11-20T22:18:44;99176.97;;;-3.20;100.00
55664;BME280;41540;57.880;12.164;2022-11-20T22:28:46;99192.38;;;-2.99;100.00
55664;BME280;41540;57.880;12.164;2022-11-20T22:38:47;99242.06;;;-2.68;100.00
55664;BME280;41540;57.880;12.164;2022-11-20T22:48:50;99158.06;;;-3.10;100.00
55664;BME280;41540;57.880;12.164;2022-11-20T22:58:51;99272.88;;;-2.42;100.00
55664;BME280;41540;57.880;12.164;2022-11-20T23:08:54;99235.75;;;-2.58;100.00
55664;BME280;41540;57.880;12.164;2022-11-20T23:19:03;99150.84;;;-2.84;100.00
55664;BME280;41540;57.880;12.164;2022-11-20T23:29:05;99146.13;;;-2.77;100.00
55664;BME280;41540;57.880;12.164;2022-11-20T23:39:05;99140.47;;;-2.71;100.00
55664;BME280;41540;57.880;12.164;2022-11-20T23:49:07;99054.34;;;-3.23;100.00
55664;BME280;41540;57.880;12.164;2022-11-20T23:59:08;99122.81;;;-2.69;100.00
